Главная страница
METAR-TAF:

METAR-TAF

Аэропорты :

Барахас

Мадрид, Испания

широта: 40-27N, долгота: 003-33W, высота над уровнем моря: 609 м

Текущие метеонаблюдения

Эта сводка был подготовлена 35 минут назад, в 06:30 UTC
Ветер 3 Узел от северный
Температура 17°C
Влажность 39%
Давление 1018 hPa
Видимость 10 км и более
Нет облачности ниже 1500 м, и нет кучево-дождевой облачности

METAR: LEMD 170630Z 35003KT CAVOK 17/03 Q1018 NOSIG

Время: 09:05 (07:05 UTC)

Прогноз

Эта сводка был подготовлена 2 часа и 5 минут назад, в 05:00 UTC
Прогноз действительный с 17-го 06 UTC до 18-го 12 UTC
Ветер 5 Узел переменных направлений
Видимость 10 км и более
Нет облачности ниже 1500 м, и нет кучево-дождевой облачности
Вероятность 40% :
временами
С 17-го 10 UTC до 17-го 18 UTC
Ветер 10 Узел от южный-юго-западный
временами
С 17-го 18 UTC до 18-го 03 UTC
Отдельные облака на высоте 5000 фута

TAF: LEMD 170500Z 1706/1812 VRB05KT CAVOK TX33/1716Z TN13/1706Z PROB40 TEMPO 1710/1718 21010KT TEMPO 1718/1803 SCT050

Метеонаблюдения и прогнозы для более 4000 аэропортов (сводки METAR и TAF).

Имеющиеся станции представлены на карте желтыми и красными точками.

Чтобы увидеть название станции, наведите на нее мышь.

Затем щелкните, чтобы увидеть метеонаблюдения и метеопрогнозы.

Управление картой: чтобы увеличить масштаб, щелкните зеленые кнопки с черным крестиком; чтобы уменьшить масштаб, щелкните зеленую кнопку с тире; для просмотра соседних карт щелкайте зеленые стрелки.


METAR-TAF: